Flight Track Log - Related Links

Times and Time Zones

All times are in EDT time to prevent confusion due to time zone crossing. See the DAL3682 flight status page for this flight to view local times or setup timezone preferences in your user account.

Time Position Orientation Groundspeed Altitude Reporting Facility
EDT Latitude Longitude Course Direction KTS MPH feet Rate Location/Type
Thu 04:03:07 PM 42.1947 -83.3514 188° South 157 181 1,200  Level Cleveland Center
Thu 04:04:21 PM 42.1353 -83.3628 188° South 197 227 3,600 1,664 Climbing Cleveland Center
Thu 04:05:06 PM 42.0939 -83.3706 188° South 197 227 4,500 1,075 Climbing Cleveland Center
Thu 04:05:28 PM 42.0692 -83.3758 189° South 257 296 4,800 1,452 Climbing Cleveland Center
Thu 04:06:08 PM 42.0286 -83.3822 187° South 248 285 6,000 2,066 Climbing Cleveland Center
Thu 04:06:29 PM 41.9969 -83.3603 153° Southeast 295 339 6,900 2,032 Climbing Cleveland Center
Thu 04:07:10 PM 41.9842 -83.3053 107° East 293 337 8,100 1,806 Climbing Cleveland Center
Thu 04:08:12 PM 41.9972 -83.1803 82° East 315 362 10,000 919 Climbing Cleveland Center
Thu 04:09:14 PM 42.0128 -83.0536 81° East 345 397 10,000 387 Level Cleveland Center
Thu 04:10:16 PM 42.0367 -82.8794 79° East 396 456 10,800 1,056 Climbing Cleveland Center
Thu 04:11:19 PM 42.0561 -82.7294 80° East 408 470 12,200 1,248 Climbing Cleveland Center
Thu 04:12:21 PM 42.0767 -82.5783 80° East 412 474 13,400 1,161 Climbing Cleveland Center
Thu 04:13:23 PM 42.0806 -82.4253 88° East 412 474 14,600 1,210 Climbing Cleveland Center
Thu 04:14:25 PM 42.0567 -82.2711 102° East 419 482 15,900 1,210 Climbing Cleveland Center
Thu 04:15:27 PM 42.0322 -82.1139 102° East 419 482 17,100 1,210 Climbing Cleveland Center
Thu 04:16:29 PM 41.9414 -81.9878 134° Southeast 403 464 18,400 1,210 Climbing Cleveland Center
Thu 04:17:31 PM 41.8489 -81.8994 145° Southeast 403 464 19,600 1,210 Climbing Cleveland Center
Thu 04:18:33 PM 41.7561 -81.8139 145° Southeast 401 461 20,900 1,065 Climbing Cleveland Center
Thu 04:19:35 PM 41.6558 -81.7481 154° Southeast 395 455 21,800 919 Climbing Cleveland Center
Thu 04:20:37 PM 41.5547 -81.6808 154° Southeast 398 458 22,800 1,065 Climbing Cleveland Center
Thu 04:21:39 PM 41.4542 -81.6144 154° Southeast 396 456 24,000 1,065 Climbing Cleveland Center
Thu 04:22:41 PM 41.3550 -81.5450 152° Southeast 390 449 25,000 484 Climbing Cleveland Center
Thu 04:23:43 PM 41.2556 -81.4783 153° Southeast 401 461 25,000  Level Cleveland Center
Thu 04:24:45 PM 41.1508 -81.4103 154° Southeast 417 480 25,000  Level Cleveland Center
Thu 04:25:48 PM 41.0367 -81.3386 155° Southeast 426 490 25,000  Level Cleveland Center
Thu 04:26:50 PM 40.9058 -81.2569 155° Southeast 439 505 25,000  Level Cleveland Center
Thu 04:27:52 PM 40.7919 -81.1894 156° South 443 510 25,000  Level Cleveland Center
Thu 04:28:54 PM 40.6778 -81.1206 155° Southeast 446 513 25,000  Level Cleveland Center
Thu 04:29:56 PM 40.5719 -81.0583 156° South 452 520 25,000  Level Cleveland Center
Thu 04:30:58 PM 40.4342 -80.9753 155° Southeast 457 526 25,000  Level Cleveland Center
Thu 04:32:00 PM 40.3194 -80.9069 156° South 457 526 25,000  Level Cleveland Center
Thu 04:33:02 PM 40.2053 -80.8392 156° South 456 525 25,000  Level Cleveland Center
Thu 04:34:04 PM 40.0914 -80.7722 156° South 454 522 25,000  Level Cleveland Center
Thu 04:35:06 PM 39.9767 -80.7064 156° South 453 521 25,000  Level Cleveland Center
Thu 04:36:08 PM 39.8389 -80.6264 156° South 456 525 25,000  Level Cleveland Center
Thu 04:37:10 PM 39.7247 -80.5589 156° South 455 524 25,000  Level Cleveland Center
Thu 04:38:13 PM 39.6097 -80.4933 156° South 455 524 25,000  Level Cleveland Center
Thu 04:39:15 PM 39.4947 -80.4286 157° South 451 519 25,000  Level Cleveland Center
Thu 04:40:17 PM 39.3806 -80.3628 156° South 451 519 25,000  Level Cleveland Center
Thu 04:41:19 PM 39.2403 -80.2833 156° South 459 528 25,000  Level Cleveland Center
Thu 04:42:21 PM 39.1186 -80.2619 172° South 446 513 25,000  Level Cleveland Center
Thu 04:43:23 PM 38.9967 -80.2900 190° South 446 513 25,000  Level Cleveland Center
Thu 04:44:25 PM 38.8753 -80.3169 190° South 443 510 25,000  Level Cleveland Center
Thu 04:45:27 PM 38.7517 -80.3192 181° South 447 514 25,000  Level Cleveland Center
Thu 04:46:34 PM 38.6136 -80.3319 184° South 451 519 25,000  Level Washington Center
Thu 04:47:32 PM 38.4914 -80.3614 191° South 445 512 25,000  Level Washington Center
Thu 04:48:34 PM 38.3608 -80.3953 192° South 445 512 25,000  Level Washington Center
Thu 04:49:34 PM 38.2406 -80.4272 192° South 445 512 25,000  Level Washington Center
Thu 04:50:32 PM 38.1183 -80.4589 192° South 450 518 25,000  Level Washington Center
Thu 04:51:33 PM 38.0089 -80.4833 190° South 450 518 25,000  Level Washington Center
Thu 04:52:34 PM 37.8886 -80.5178 193° South 450 518 25,000  Level Washington Center
Thu 04:53:32 PM 37.7664 -80.5464 190° South 450 518 25,000  Level Washington Center
Thu 04:55:07 PM 37.5653 -80.5964 191° South 472 543 25,000  Level Atlanta Center
Thu 04:56:07 PM 37.4453 -80.6253 191° South 459 528 25,000  Level Atlanta Center
Thu 04:57:07 PM 37.3231 -80.6489 189° South 448 516 25,000  Level Atlanta Center
Thu 04:58:07 PM 37.2131 -80.6642 186° South 442 509 25,000  Level Atlanta Center
Thu 04:59:07 PM 37.0925 -80.6822 187° South 442 509 25,000  Level Atlanta Center
Thu 05:00:07 PM 36.9722 -80.7003 187° South 442 509 25,000  Level Atlanta Center
Thu 05:01:07 PM 36.8497 -80.7183 187° South 442 509 25,000 -100 Level Atlanta Center
Thu 05:02:07 PM 36.7289 -80.7314 185° South 442 509 24,800 -500 Descending Atlanta Center
Thu 05:03:07 PM 36.6044 -80.7494 187° South 448 516 24,000 -750 Descending Atlanta Center
Thu 05:04:07 PM 36.4778 -80.7700 187° South 454 522 23,300 -500 Descending Atlanta Center
Thu 05:05:07 PM 36.3489 -80.7881 186° South 448 516 23,000 -150 Descending Atlanta Center
Thu 05:06:07 PM 36.2283 -80.8058 187° South 442 509 23,000  Level Atlanta Center
Thu 05:07:07 PM 36.1100 -80.8208 186° South 442 509 23,000  Level Atlanta Center
Thu 05:08:07 PM 35.9894 -80.8411 188° South 442 509 23,000  Level Atlanta Center
Thu 05:09:07 PM 35.8669 -80.8561 186° South 442 509 23,000  Level Atlanta Center
Thu 05:10:07 PM 35.7464 -80.8736 187° South 442 509 23,000  Level Atlanta Center
Thu 05:11:07 PM 35.6381 -80.8881 186° South 442 509 23,000  Level Atlanta Center
Thu 05:12:07 PM 35.5175 -80.9056 187° South 442 509 23,000  Level Atlanta Center
Thu 05:13:07 PM 35.3972 -80.9253 188° South 442 509 23,000  Level Atlanta Center
Thu 05:14:07 PM 35.2786 -80.9400 186° South 442 509 23,000 -50 Level Atlanta Center
Thu 05:15:07 PM 35.1475 -80.9575 186° South 442 509 22,900 -800 Descending Atlanta Center
Thu 05:16:07 PM 35.0267 -80.9672 184° South 436 502 21,400 -1,500 Descending Atlanta Center
Thu 05:17:07 PM 34.9061 -80.9792 185° South 436 502 19,900 -1,550 Descending Atlanta Center
Thu 05:18:07 PM 34.7894 -80.9886 184° South 435 501 18,300 -1,450 Descending Atlanta Center
Thu 05:19:07 PM 34.6747 -80.9953 183° South 430 495 17,000 -1,500 Descending Atlanta Center
Thu 05:20:07 PM 34.5667 -81.0042 184° South 407 468 15,300 -1,800 Descending Atlanta Center
Thu 05:21:07 PM 34.4586 -81.0283 190° South 397 457 13,400 -2,100 Descending Atlanta Center
Thu 05:22:07 PM 34.3681 -81.0794 205° Southwest 371 427 11,100 -1,600 Descending Atlanta Center
Thu 05:23:07 PM 34.2856 -81.1200 202° Southwest 347 399 10,200 -1,350 Descending Atlanta Center
Thu 05:24:07 PM 34.2153 -81.1500 199° South 304 350 8,400 -1,950 Descending Atlanta Center
Thu 05:25:07 PM 34.1469 -81.1750 197° South 276 318 6,300 -2,100 Descending Atlanta Center
Thu 05:26:07 PM 34.0850 -81.2044 201° Southwest 258 297 4,200 -1,650 Descending Atlanta Center
Thu 05:27:07 PM 34.0228 -81.2242 195° South 246 283 3,000 -1,100 Descending Atlanta Center
Thu 05:28:07 PM 33.9692 -81.2433 197° South 219 252 2,000 -1,000 Descending Atlanta Center
Thu 05:31:00 PM 33.9333 -81.1167 135° Southeast  Level FlightAware Approximate
Thu 05:38:00 PM 33.9388 -81.1195 135° Southeast  Level Estimated

Login

Don't have an account? Register now (free) for customized features, flight alerts, and more!